sensor_id;sensor_type;location;lat;lon;timestamp;P1;durP1;ratioP1;P2;durP2;ratioP2
38224;SDS011;24025;48.138;11.428;2023-08-21T00:00:19;6.60;;;4.75;;
38224;SDS011;24025;48.138;11.428;2023-08-21T04:56:45;6.20;;;4.90;;
38224;SDS011;24025;48.138;11.428;2023-08-21T04:59:16;6.85;;;4.85;;
38224;SDS011;24025;48.138;11.428;2023-08-21T05:01:48;5.10;;;4.65;;
38224;SDS011;24025;48.138;11.428;2023-08-21T06:48:09;13.55;;;4.50;;
38224;SDS011;24025;48.138;11.428;2023-08-21T06:50:41;8.93;;;5.03;;
38224;SDS011;24025;48.138;11.428;2023-08-21T06:53:12;9.68;;;5.00;;
38224;SDS011;24025;48.138;11.428;2023-08-21T06:55:44;17.05;;;5.35;;
38224;SDS011;24025;48.138;11.428;2023-08-21T06:58:17;8.45;;;4.95;;
38224;SDS011;24025;48.138;11.428;2023-08-21T07:00:48;7.97;;;4.55;;
38224;SDS011;24025;48.138;11.428;2023-08-21T07:03:20;14.20;;;5.18;;
38224;SDS011;24025;48.138;11.428;2023-08-21T07:05:55;9.52;;;5.38;;
38224;SDS011;24025;48.138;11.428;2023-08-21T07:08:28;9.38;;;5.00;;
38224;SDS011;24025;48.138;11.428;2023-08-21T07:13:33;15.80;;;4.50;;
38224;SDS011;24025;48.138;11.428;2023-08-21T07:18:37;16.60;;;5.40;;
38224;SDS011;24025;48.138;11.428;2023-08-21T07:21:09;13.30;;;4.85;;
38224;SDS011;24025;48.138;11.428;2023-08-21T07:24:02;12.13;;;5.28;;
38224;SDS011;24025;48.138;11.428;2023-08-21T07:26:37;15.18;;;5.13;;
38224;SDS011;24025;48.138;11.428;2023-08-21T07:29:08;10.27;;;5.60;;
38224;SDS011;24025;48.138;11.428;2023-08-21T07:31:40;10.60;;;5.20;;
38224;SDS011;24025;48.138;11.428;2023-08-21T07:34:12;6.25;;;4.35;;
38224;SDS011;24025;48.138;11.428;2023-08-21T07:36:43;10.52;;;5.03;;
38224;SDS011;24025;48.138;11.428;2023-08-21T07:39:15;15.65;;;5.50;;
38224;SDS011;24025;48.138;11.428;2023-08-21T07:41:46;10.63;;;5.13;;
38224;SDS011;24025;48.138;11.428;2023-08-21T07:44:18;7.78;;;5.53;;
38224;SDS011;24025;48.138;11.428;2023-08-21T07:49:22;9.32;;;5.30;;
38224;SDS011;24025;48.138;11.428;2023-08-21T07:54:25;10.13;;;4.97;;
38224;SDS011;24025;48.138;11.428;2023-08-21T07:56:57;8.25;;;5.05;;
38224;SDS011;24025;48.138;11.428;2023-08-21T07:59:28;11.43;;;5.13;;
38224;SDS011;24025;48.138;11.428;2023-08-21T08:02:00;15.70;;;6.00;;
38224;SDS011;24025;48.138;11.428;2023-08-21T08:04:32;6.45;;;5.25;;
38224;SDS011;24025;48.138;11.428;2023-08-21T08:07:03;8.15;;;5.10;;
38224;SDS011;24025;48.138;11.428;2023-08-21T08:09:35;5.93;;;5.13;;
38224;SDS011;24025;48.138;11.428;2023-08-21T08:12:07;8.93;;;4.85;;
38224;SDS011;24025;48.138;11.428;2023-08-21T08:14:40;6.85;;;4.90;;
38224;SDS011;24025;48.138;11.428;2023-08-21T08:17:12;6.95;;;4.90;;
38224;SDS011;24025;48.138;11.428;2023-08-21T08:19:44;18.63;;;6.63;;
38224;SDS011;24025;48.138;11.428;2023-08-21T08:22:15;11.77;;;5.53;;
38224;SDS011;24025;48.138;11.428;2023-08-21T08:24:47;9.32;;;5.18;;
38224;SDS011;24025;48.138;11.428;2023-08-21T08:27:19;6.28;;;5.68;;
38224;SDS011;24025;48.138;11.428;2023-08-21T08:29:51;8.73;;;5.10;;
38224;SDS011;24025;48.138;11.428;2023-08-21T08:32:23;6.22;;;5.03;;
38224;SDS011;24025;48.138;11.428;2023-08-21T08:34:55;7.15;;;4.93;;
38224;SDS011;24025;48.138;11.428;2023-08-21T08:39:58;8.65;;;4.43;;
38224;SDS011;24025;48.138;11.428;2023-08-21T08:45:02;6.68;;;4.55;;
38224;SDS011;24025;48.138;11.428;2023-08-21T08:47:35;4.60;;;3.75;;
38224;SDS011;24025;48.138;11.428;2023-08-21T08:50:07;8.15;;;3.90;;
38224;SDS011;24025;48.138;11.428;2023-08-21T08:52:42;7.63;;;4.15;;
38224;SDS011;24025;48.138;11.428;2023-08-21T08:55:14;5.88;;;4.80;;
38224;SDS011;24025;48.138;11.428;2023-08-21T08:57:46;5.55;;;4.22;;
38224;SDS011;24025;48.138;11.428;2023-08-21T09:00:17;5.03;;;4.32;;
38224;SDS011;24025;48.138;11.428;2023-08-21T09:02:49;4.90;;;4.40;;
38224;SDS011;24025;48.138;11.428;2023-08-21T09:05:22;6.53;;;4.93;;
38224;SDS011;24025;48.138;11.428;2023-08-21T09:08:13;10.20;;;4.93;;
38224;SDS011;24025;48.138;11.428;2023-08-21T09:10:45;7.60;;;4.57;;
38224;SDS011;24025;48.138;11.428;2023-08-21T09:15:53;5.97;;;4.78;;
38224;SDS011;24025;48.138;11.428;2023-08-21T09:18:26;8.80;;;4.20;;
38224;SDS011;24025;48.138;11.428;2023-08-21T09:23:33;6.35;;;4.55;;
38224;SDS011;24025;48.138;11.428;2023-08-21T09:28:36;8.93;;;4.93;;
38224;SDS011;24025;48.138;11.428;2023-08-21T09:31:10;9.07;;;4.63;;
38224;SDS011;24025;48.138;11.428;2023-08-21T09:33:42;8.30;;;4.70;;
38224;SDS011;24025;48.138;11.428;2023-08-21T09:36:16;5.00;;;4.50;;
38224;SDS011;24025;48.138;11.428;2023-08-21T09:38:48;9.07;;;4.82;;
38224;SDS011;24025;48.138;11.428;2023-08-21T09:41:20;5.93;;;4.10;;
38224;SDS011;24025;48.138;11.428;2023-08-21T09:43:52;7.35;;;4.50;;
38224;SDS011;24025;48.138;11.428;2023-08-21T09:48:56;8.27;;;4.50;;
38224;SDS011;24025;48.138;11.428;2023-08-21T09:51:28;6.78;;;4.20;;
38224;SDS011;24025;48.138;11.428;2023-08-21T09:54:00;4.88;;;3.95;;
38224;SDS011;24025;48.138;11.428;2023-08-21T09:56:34;4.38;;;3.90;;
38224;SDS011;24025;48.138;11.428;2023-08-21T09:59:07;5.50;;;3.60;;
38224;SDS011;24025;48.138;11.428;2023-08-21T10:01:40;6.03;;;3.25;;
38224;SDS011;24025;48.138;11.428;2023-08-21T10:04:12;3.92;;;3.63;;
38224;SDS011;24025;48.138;11.428;2023-08-21T10:06:45;7.60;;;4.00;;
38224;SDS011;24025;48.138;11.428;2023-08-21T10:09:17;7.07;;;4.40;;
38224;SDS011;24025;48.138;11.428;2023-08-21T10:11:49;9.18;;;4.03;;
38224;SDS011;24025;48.138;11.428;2023-08-21T10:14:23;4.50;;;4.10;;
38224;SDS011;24025;48.138;11.428;2023-08-21T10:16:55;6.40;;;4.47;;
38224;SDS011;24025;48.138;11.428;2023-08-21T10:19:31;5.82;;;4.40;;
38224;SDS011;24025;48.138;11.428;2023-08-21T10:22:03;5.78;;;4.38;;
38224;SDS011;24025;48.138;11.428;2023-08-21T10:27:10;5.13;;;4.25;;
38224;SDS011;24025;48.138;11.428;2023-08-21T10:29:46;4.07;;;3.78;;
38224;SDS011;24025;48.138;11.428;2023-08-21T10:32:28;6.80;;;4.00;;
38224;SDS011;24025;48.138;11.428;2023-08-21T10:40:03;3.90;;;3.58;;
38224;SDS011;24025;48.138;11.428;2023-08-21T10:42:38;7.07;;;4.35;;
38224;SDS011;24025;48.138;11.428;2023-08-21T10:45:14;6.95;;;4.22;;
38224;SDS011;24025;48.138;11.428;2023-08-21T10:50:18;7.10;;;4.45;;
38224;SDS011;24025;48.138;11.428;2023-08-21T10:52:51;5.30;;;4.40;;
38224;SDS011;24025;48.138;11.428;2023-08-21T10:55:24;6.43;;;4.45;;
38224;SDS011;24025;48.138;11.428;2023-08-21T11:00:27;4.63;;;4.10;;
38224;SDS011;24025;48.138;11.428;2023-08-21T11:05:30;6.60;;;3.95;;
38224;SDS011;24025;48.138;11.428;2023-08-21T11:08:02;5.53;;;4.38;;
38224;SDS011;24025;48.138;11.428;2023-08-21T11:10:34;12.73;;;3.95;;
38224;SDS011;24025;48.138;11.428;2023-08-21T11:13:06;5.05;;;4.55;;
38224;SDS011;24025;48.138;11.428;2023-08-21T11:15:38;6.47;;;4.20;;
38224;SDS011;24025;48.138;11.428;2023-08-21T11:18:10;6.55;;;4.05;;
38224;SDS011;24025;48.138;11.428;2023-08-21T11:20:42;8.00;;;4.28;;
38224;SDS011;24025;48.138;11.428;2023-08-21T11:23:14;6.82;;;4.40;;
38224;SDS011;24025;48.138;11.428;2023-08-21T11:25:47;4.60;;;3.95;;
38224;SDS011;24025;48.138;11.428;2023-08-21T11:28:19;7.55;;;4.22;;
38224;SDS011;24025;48.138;11.428;2023-08-21T11:30:50;4.20;;;3.72;;
38224;SDS011;24025;48.138;11.428;2023-08-21T11:33:23;7.75;;;3.80;;
38224;SDS011;24025;48.138;11.428;2023-08-21T11:35:55;5.20;;;4.40;;
38224;SDS011;24025;48.138;11.428;2023-08-21T11:38:28;5.90;;;4.55;;
38224;SDS011;24025;48.138;11.428;2023-08-21T11:41:01;4.82;;;4.43;;
38224;SDS011;24025;48.138;11.428;2023-08-21T11:43:37;4.93;;;4.53;;
38224;SDS011;24025;48.138;11.428;2023-08-21T11:46:10;9.25;;;4.75;;
38224;SDS011;24025;48.138;11.428;2023-08-21T11:48:42;5.07;;;4.38;;
38224;SDS011;24025;48.138;11.428;2023-08-21T11:51:14;4.43;;;4.07;;
38224;SDS011;24025;48.138;11.428;2023-08-21T11:53:47;8.18;;;4.13;;
38224;SDS011;24025;48.138;11.428;2023-08-21T11:56:20;3.88;;;3.55;;
38224;SDS011;24025;48.138;11.428;2023-08-21T11:58:54;4.25;;;3.85;;
38224;SDS011;24025;48.138;11.428;2023-08-21T12:01:26;6.20;;;4.10;;
38224;SDS011;24025;48.138;11.428;2023-08-21T12:03:58;8.07;;;4.00;;
38224;SDS011;24025;48.138;11.428;2023-08-21T12:06:30;4.68;;;3.42;;
38224;SDS011;24025;48.138;11.428;2023-08-21T12:09:03;12.02;;;4.03;;
38224;SDS011;24025;48.138;11.428;2023-08-21T12:11:35;4.28;;;3.88;;
38224;SDS011;24025;48.138;11.428;2023-08-21T12:14:09;4.45;;;4.05;;
38224;SDS011;24025;48.138;11.428;2023-08-21T12:16:41;5.05;;;4.05;;
38224;SDS011;24025;48.138;11.428;2023-08-21T12:19:12;5.32;;;3.88;;
38224;SDS011;24025;48.138;11.428;2023-08-21T12:21:45;5.15;;;3.92;;
38224;SDS011;24025;48.138;11.428;2023-08-21T12:24:17;7.95;;;4.00;;
38224;SDS011;24025;48.138;11.428;2023-08-21T12:26:49;4.28;;;3.88;;
38224;SDS011;24025;48.138;11.428;2023-08-21T12:29:21;3.65;;;3.35;;
38224;SDS011;24025;48.138;11.428;2023-08-21T12:31:53;13.77;;;5.60;;
38224;SDS011;24025;48.138;11.428;2023-08-21T12:34:25;5.53;;;4.40;;
38224;SDS011;24025;48.138;11.428;2023-08-21T12:36:57;4.32;;;3.83;;
38224;SDS011;24025;48.138;11.428;2023-08-21T12:39:28;6.85;;;3.95;;
38224;SDS011;24025;48.138;11.428;2023-08-21T12:42:00;5.05;;;3.70;;
38224;SDS011;24025;48.138;11.428;2023-08-21T12:44:32;6.80;;;3.90;;
38224;SDS011;24025;48.138;11.428;2023-08-21T12:47:08;4.35;;;3.95;;
38224;SDS011;24025;48.138;11.428;2023-08-21T12:49:40;5.10;;;4.30;;
38224;SDS011;24025;48.138;11.428;2023-08-21T12:52:12;7.03;;;3.92;;
38224;SDS011;24025;48.138;11.428;2023-08-21T12:54:44;7.28;;;3.78;;
38224;SDS011;24025;48.138;11.428;2023-08-21T12:57:16;8.30;;;5.05;;
38224;SDS011;24025;48.138;11.428;2023-08-21T12:59:48;5.45;;;4.43;;
38224;SDS011;24025;48.138;11.428;2023-08-21T13:02:19;5.70;;;3.70;;
38224;SDS011;24025;48.138;11.428;2023-08-21T13:04:51;6.78;;;3.80;;
38224;SDS011;24025;48.138;11.428;2023-08-21T13:07:23;9.15;;;4.40;;
38224;SDS011;24025;48.138;11.428;2023-08-21T13:09:55;8.65;;;4.07;;
38224;SDS011;24025;48.138;11.428;2023-08-21T13:12:26;5.50;;;4.32;;
38224;SDS011;24025;48.138;11.428;2023-08-21T13:14:58;7.72;;;4.10;;
38224;SDS011;24025;48.138;11.428;2023-08-21T13:17:30;8.00;;;4.95;;
38224;SDS011;24025;48.138;11.428;2023-08-21T13:20:02;5.13;;;3.67;;
38224;SDS011;24025;48.138;11.428;2023-08-21T13:22:47;4.07;;;3.67;;
38224;SDS011;24025;48.138;11.428;2023-08-21T13:25:21;4.50;;;4.05;;
38224;SDS011;24025;48.138;11.428;2023-08-21T13:27:55;9.93;;;4.05;;
38224;SDS011;24025;48.138;11.428;2023-08-21T13:30:27;6.75;;;3.90;;
38224;SDS011;24025;48.138;11.428;2023-08-21T13:32:59;9.50;;;3.65;;
38224;SDS011;24025;48.138;11.428;2023-08-21T13:35:31;6.30;;;3.67;;
38224;SDS011;24025;48.138;11.428;2023-08-21T13:38:03;4.97;;;3.50;;
38224;SDS011;24025;48.138;11.428;2023-08-21T13:40:35;6.43;;;3.90;;
38224;SDS011;24025;48.138;11.428;2023-08-21T13:43:07;9.77;;;4.10;;
38224;SDS011;24025;48.138;11.428;2023-08-21T13:45:41;7.25;;;4.20;;
38224;SDS011;24025;48.138;11.428;2023-08-21T13:48:12;4.82;;;4.22;;
38224;SDS011;24025;48.138;11.428;2023-08-21T13:50:44;4.53;;;4.10;;
38224;SDS011;24025;48.138;11.428;2023-08-21T13:53:16;9.15;;;3.80;;
38224;SDS011;24025;48.138;11.428;2023-08-21T13:55:49;4.45;;;4.00;;
38224;SDS011;24025;48.138;11.428;2023-08-21T13:58:21;6.60;;;4.05;;
38224;SDS011;24025;48.138;11.428;2023-08-21T14:00:53;4.93;;;4.00;;
38224;SDS011;24025;48.138;11.428;2023-08-21T14:03:27;6.93;;;4.10;;
38224;SDS011;24025;48.138;11.428;2023-08-21T14:05:58;6.07;;;4.00;;
38224;SDS011;24025;48.138;11.428;2023-08-21T14:08:30;4.28;;;3.92;;
38224;SDS011;24025;48.138;11.428;2023-08-21T14:11:02;5.78;;;3.88;;
38224;SDS011;24025;48.138;11.428;2023-08-21T14:13:34;5.75;;;4.00;;
38224;SDS011;24025;48.138;11.428;2023-08-21T14:16:05;8.20;;;4.70;;
38224;SDS011;24025;48.138;11.428;2023-08-21T14:18:37;4.80;;;3.53;;
38224;SDS011;24025;48.138;11.428;2023-08-21T14:21:09;5.95;;;3.88;;
38224;SDS011;24025;48.138;11.428;2023-08-21T14:23:41;8.63;;;4.15;;
38224;SDS011;24025;48.138;11.428;2023-08-21T14:26:12;5.40;;;3.50;;
38224;SDS011;24025;48.138;11.428;2023-08-21T14:28:44;5.05;;;3.58;;
38224;SDS011;24025;48.138;11.428;2023-08-21T14:31:21;6.65;;;3.55;;
38224;SDS011;24025;48.138;11.428;2023-08-21T14:33:53;7.97;;;4.03;;
38224;SDS011;24025;48.138;11.428;2023-08-21T14:36:25;4.13;;;3.50;;
38224;SDS011;24025;48.138;11.428;2023-08-21T14:38:56;9.82;;;4.53;;
38224;SDS011;24025;48.138;11.428;2023-08-21T14:41:28;5.60;;;3.75;;
38224;SDS011;24025;48.138;11.428;2023-08-21T14:44:00;6.25;;;4.10;;
38224;SDS011;24025;48.138;11.428;2023-08-21T14:46:31;4.13;;;3.75;;
38224;SDS011;24025;48.138;11.428;2023-08-21T14:49:13;5.80;;;3.80;;
38224;SDS011;24025;48.138;11.428;2023-08-21T14:51:45;4.30;;;3.95;;
38224;SDS011;24025;48.138;11.428;2023-08-21T14:54:17;9.25;;;4.32;;
38224;SDS011;24025;48.138;11.428;2023-08-21T14:56:49;8.00;;;5.15;;
38224;SDS011;24025;48.138;11.428;2023-08-21T14:59:21;7.53;;;5.20;;
38224;SDS011;24025;48.138;11.428;2023-08-21T15:01:52;5.47;;;4.88;;
38224;SDS011;24025;48.138;11.428;2023-08-21T15:04:26;9.73;;;5.20;;
38224;SDS011;24025;48.138;11.428;2023-08-21T15:06:58;7.28;;;5.18;;
38224;SDS011;24025;48.138;11.428;2023-08-21T15:09:30;8.00;;;5.40;;
38224;SDS011;24025;48.138;11.428;2023-08-21T15:12:02;7.53;;;4.85;;
38224;SDS011;24025;48.138;11.428;2023-08-21T15:14:33;6.35;;;5.75;;
38224;SDS011;24025;48.138;11.428;2023-08-21T15:17:05;6.85;;;5.00;;
38224;SDS011;24025;48.138;11.428;2023-08-21T15:19:49;5.65;;;5.15;;
38224;SDS011;24025;48.138;11.428;2023-08-21T15:22:21;6.97;;;4.70;;
38224;SDS011;24025;48.138;11.428;2023-08-21T15:24:53;6.70;;;5.38;;
38224;SDS011;24025;48.138;11.428;2023-08-21T15:27:25;6.00;;;5.30;;
38224;SDS011;24025;48.138;11.428;2023-08-21T15:29:56;6.93;;;4.80;;
38224;SDS011;24025;48.138;11.428;2023-08-21T15:32:28;5.80;;;5.07;;
38224;SDS011;24025;48.138;11.428;2023-08-21T15:35:00;10.57;;;5.50;;
38224;SDS011;24025;48.138;11.428;2023-08-21T15:37:36;6.30;;;5.70;;
38224;SDS011;24025;48.138;11.428;2023-08-21T15:40:08;5.65;;;5.25;;
38224;SDS011;24025;48.138;11.428;2023-08-21T15:42:40;6.60;;;5.88;;
38224;SDS011;24025;48.138;11.428;2023-08-21T15:45:12;8.10;;;5.00;;
38224;SDS011;24025;48.138;11.428;2023-08-21T15:47:44;6.63;;;5.97;;
38224;SDS011;24025;48.138;11.428;2023-08-21T15:50:19;5.72;;;5.32;;
38224;SDS011;24025;48.138;11.428;2023-08-21T15:52:51;10.38;;;6.07;;
38224;SDS011;24025;48.138;11.428;2023-08-21T15:55:23;5.97;;;5.47;;
38224;SDS011;24025;48.138;11.428;2023-08-21T15:57:55;8.10;;;5.47;;
38224;SDS011;24025;48.138;11.428;2023-08-21T16:00:27;6.43;;;5.40;;
38224;SDS011;24025;48.138;11.428;2023-08-21T16:02:58;6.50;;;5.07;;
38224;SDS011;24025;48.138;11.428;2023-08-21T16:05:30;5.55;;;5.00;;
38224;SDS011;24025;48.138;11.428;2023-08-21T16:08:02;5.47;;;5.03;;
38224;SDS011;24025;48.138;11.428;2023-08-21T16:10:34;5.43;;;4.90;;
38224;SDS011;24025;48.138;11.428;2023-08-21T16:13:06;5.72;;;5.18;;
38224;SDS011;24025;48.138;11.428;2023-08-21T16:15:38;6.28;;;4.97;;
38224;SDS011;24025;48.138;11.428;2023-08-21T16:18:09;6.25;;;5.63;;
38224;SDS011;24025;48.138;11.428;2023-08-21T16:20:41;7.28;;;5.35;;
38224;SDS011;24025;48.138;11.428;2023-08-21T16:23:13;5.38;;;4.93;;
38224;SDS011;24025;48.138;11.428;2023-08-21T16:25:44;7.40;;;5.30;;
38224;SDS011;24025;48.138;11.428;2023-08-21T16:28:16;7.10;;;4.95;;
38224;SDS011;24025;48.138;11.428;2023-08-21T16:30:51;4.60;;;4.28;;
38224;SDS011;24025;48.138;11.428;2023-08-21T16:33:22;6.78;;;3.80;;
38224;SDS011;24025;48.138;11.428;2023-08-21T16:35:54;4.57;;;4.15;;
38224;SDS011;24025;48.138;11.428;2023-08-21T16:38:26;10.05;;;4.10;;
38224;SDS011;24025;48.138;11.428;2023-08-21T16:40:57;11.48;;;4.40;;
38224;SDS011;24025;48.138;11.428;2023-08-21T16:43:29;3.60;;;3.30;;
38224;SDS011;24025;48.138;11.428;2023-08-21T16:46:01;5.22;;;4.18;;
38224;SDS011;24025;48.138;11.428;2023-08-21T16:48:32;5.40;;;3.92;;
38224;SDS011;24025;48.138;11.428;2023-08-21T16:51:04;7.20;;;4.80;;
38224;SDS011;24025;48.138;11.428;2023-08-21T16:53:36;11.82;;;3.80;;
38224;SDS011;24025;48.138;11.428;2023-08-21T16:56:08;8.55;;;3.95;;
38224;SDS011;24025;48.138;11.428;2023-08-21T16:58:39;5.47;;;4.20;;
38224;SDS011;24025;48.138;11.428;2023-08-21T17:01:11;7.45;;;4.00;;
38224;SDS011;24025;48.138;11.428;2023-08-21T17:03:45;8.50;;;4.90;;
38224;SDS011;24025;48.138;11.428;2023-08-21T17:06:17;5.93;;;4.50;;
38224;SDS011;24025;48.138;11.428;2023-08-21T17:08:48;11.45;;;4.43;;
38224;SDS011;24025;48.138;11.428;2023-08-21T17:11:20;8.23;;;4.63;;
38224;SDS011;24025;48.138;11.428;2023-08-21T17:13:52;5.53;;;3.97;;
38224;SDS011;24025;48.138;11.428;2023-08-21T17:16:24;6.90;;;3.33;;
38224;SDS011;24025;48.138;11.428;2023-08-21T17:18:56;8.63;;;4.50;;
38224;SDS011;24025;48.138;11.428;2023-08-21T17:21:27;8.02;;;4.20;;
38224;SDS011;24025;48.138;11.428;2023-08-21T17:24:01;4.20;;;3.67;;
38224;SDS011;24025;48.138;11.428;2023-08-21T17:26:32;6.80;;;4.05;;
38224;SDS011;24025;48.138;11.428;2023-08-21T17:29:05;6.72;;;4.68;;
38224;SDS011;24025;48.138;11.428;2023-08-21T17:31:37;5.65;;;3.80;;
38224;SDS011;24025;48.138;11.428;2023-08-21T17:34:08;5.65;;;4.30;;
38224;SDS011;24025;48.138;11.428;2023-08-21T17:36:41;6.15;;;3.90;;
38224;SDS011;24025;48.138;11.428;2023-08-21T17:39:12;7.38;;;4.60;;
38224;SDS011;24025;48.138;11.428;2023-08-21T17:41:46;4.88;;;4.35;;
38224;SDS011;24025;48.138;11.428;2023-08-21T17:44:18;5.63;;;4.65;;
38224;SDS011;24025;48.138;11.428;2023-08-21T17:46:50;7.03;;;4.35;;
38224;SDS011;24025;48.138;11.428;2023-08-21T17:49:22;6.60;;;4.18;;
38224;SDS011;24025;48.138;11.428;2023-08-21T17:52:01;8.45;;;4.57;;
38224;SDS011;24025;48.138;11.428;2023-08-21T17:54:33;11.65;;;5.07;;
38224;SDS011;24025;48.138;11.428;2023-08-21T17:57:05;8.98;;;4.45;;
38224;SDS011;24025;48.138;11.428;2023-08-21T17:59:37;10.73;;;5.38;;
38224;SDS011;24025;48.138;11.428;2023-08-21T18:02:08;9.52;;;4.45;;
38224;SDS011;24025;48.138;11.428;2023-08-21T18:04:55;9.45;;;4.72;;
38224;SDS011;24025;48.138;11.428;2023-08-21T18:07:31;4.88;;;4.32;;
38224;SDS011;24025;48.138;11.428;2023-08-21T18:10:03;9.38;;;5.03;;
38224;SDS011;24025;48.138;11.428;2023-08-21T18:12:35;5.90;;;4.60;;
38224;SDS011;24025;48.138;11.428;2023-08-21T18:15:07;7.90;;;4.50;;
38224;SDS011;24025;48.138;11.428;2023-08-21T18:17:39;5.63;;;4.22;;
38224;SDS011;24025;48.138;11.428;2023-08-21T18:20:13;5.70;;;5.10;;
38224;SDS011;24025;48.138;11.428;2023-08-21T18:22:45;6.43;;;4.68;;
38224;SDS011;24025;48.138;11.428;2023-08-21T18:25:16;9.00;;;4.65;;
38224;SDS011;24025;48.138;11.428;2023-08-21T18:27:48;7.47;;;4.65;;
38224;SDS011;24025;48.138;11.428;2023-08-21T18:30:19;16.90;;;4.50;;
38224;SDS011;24025;48.138;11.428;2023-08-21T18:32:51;8.63;;;5.25;;
38224;SDS011;24025;48.138;11.428;2023-08-21T18:35:23;8.23;;;3.95;;
38224;SDS011;24025;48.138;11.428;2023-08-21T18:37:54;11.98;;;5.28;;
38224;SDS011;24025;48.138;11.428;2023-08-21T18:40:26;6.25;;;3.92;;
38224;SDS011;24025;48.138;11.428;2023-08-21T18:42:59;10.32;;;4.65;;
38224;SDS011;24025;48.138;11.428;2023-08-21T18:45:31;9.45;;;4.57;;
38224;SDS011;24025;48.138;11.428;2023-08-21T18:48:03;7.25;;;4.15;;
38224;SDS011;24025;48.138;11.428;2023-08-21T18:50:40;10.73;;;4.78;;
38224;SDS011;24025;48.138;11.428;2023-08-21T18:53:14;8.05;;;4.82;;
38224;SDS011;24025;48.138;11.428;2023-08-21T18:55:46;12.63;;;5.00;;
38224;SDS011;24025;48.138;11.428;2023-08-21T18:58:18;5.68;;;4.82;;
38224;SDS011;24025;48.138;11.428;2023-08-21T19:00:54;7.68;;;4.65;;
38224;SDS011;24025;48.138;11.428;2023-08-21T19:03:26;9.35;;;4.82;;
38224;SDS011;24025;48.138;11.428;2023-08-21T19:05:58;5.50;;;4.55;;
38224;SDS011;24025;48.138;11.428;2023-08-21T19:08:30;5.38;;;4.80;;
38224;SDS011;24025;48.138;11.428;2023-08-21T19:11:02;6.97;;;5.88;;
38224;SDS011;24025;48.138;11.428;2023-08-21T19:13:34;9.02;;;5.05;;
38224;SDS011;24025;48.138;11.428;2023-08-21T19:16:06;7.05;;;5.45;;
38224;SDS011;24025;48.138;11.428;2023-08-21T19:18:37;6.60;;;5.68;;
38224;SDS011;24025;48.138;11.428;2023-08-21T19:23:40;17.48;;;6.35;;
38224;SDS011;24025;48.138;11.428;2023-08-21T19:28:43;6.80;;;6.10;;
38224;SDS011;24025;48.138;11.428;2023-08-21T19:33:47;8.15;;;5.95;;
38224;SDS011;24025;48.138;11.428;2023-08-21T19:38:50;10.15;;;6.18;;
38224;SDS011;24025;48.138;11.428;2023-08-21T19:41:23;8.60;;;5.97;;
38224;SDS011;24025;48.138;11.428;2023-08-21T19:43:55;12.40;;;5.47;;
38224;SDS011;24025;48.138;11.428;2023-08-21T19:46:26;6.75;;;5.43;;
38224;SDS011;24025;48.138;11.428;2023-08-21T19:51:29;9.10;;;5.30;;
38224;SDS011;24025;48.138;11.428;2023-08-21T19:54:01;7.47;;;5.78;;
38224;SDS011;24025;48.138;11.428;2023-08-21T19:59:04;7.45;;;5.80;;
38224;SDS011;24025;48.138;11.428;2023-08-21T20:04:08;14.00;;;8.45;;
38224;SDS011;24025;48.138;11.428;2023-08-21T20:06:40;7.10;;;6.10;;
38224;SDS011;24025;48.138;11.428;2023-08-21T20:11:44;6.30;;;5.65;;
38224;SDS011;24025;48.138;11.428;2023-08-21T20:14:15;10.68;;;6.22;;
38224;SDS011;24025;48.138;11.428;2023-08-21T20:16:48;8.35;;;5.55;;
38224;SDS011;24025;48.138;11.428;2023-08-21T20:19:20;8.85;;;6.18;;
38224;SDS011;24025;48.138;11.428;2023-08-21T20:24:23;10.80;;;5.57;;
38224;SDS011;24025;48.138;11.428;2023-08-21T20:26:55;9.00;;;5.78;;
38224;SDS011;24025;48.138;11.428;2023-08-21T20:31:58;7.57;;;5.70;;
38224;SDS011;24025;48.138;11.428;2023-08-21T20:34:30;11.07;;;6.22;;
38224;SDS011;24025;48.138;11.428;2023-08-21T20:39:33;6.50;;;5.78;;
38224;SDS011;24025;48.138;11.428;2023-08-21T20:44:36;6.82;;;6.13;;
38224;SDS011;24025;48.138;11.428;2023-08-21T20:47:08;8.13;;;5.22;;
38224;SDS011;24025;48.138;11.428;2023-08-21T20:49:40;9.60;;;6.57;;
38224;SDS011;24025;48.138;11.428;2023-08-21T20:52:12;7.72;;;5.82;;
38224;SDS011;24025;48.138;11.428;2023-08-21T20:54:43;11.32;;;6.70;;
38224;SDS011;24025;48.138;11.428;2023-08-21T20:57:15;9.52;;;5.60;;
38224;SDS011;24025;48.138;11.428;2023-08-21T20:59:47;9.93;;;5.57;;
38224;SDS011;24025;48.138;11.428;2023-08-21T21:02:18;7.57;;;5.57;;
38224;SDS011;24025;48.138;11.428;2023-08-21T21:04:51;7.45;;;5.85;;
38224;SDS011;24025;48.138;11.428;2023-08-21T21:07:24;14.07;;;5.53;;
38224;SDS011;24025;48.138;11.428;2023-08-21T21:12:27;7.20;;;5.68;;
38224;SDS011;24025;48.138;11.428;2023-08-21T21:14:59;7.88;;;5.88;;
38224;SDS011;24025;48.138;11.428;2023-08-21T21:20:02;7.68;;;5.78;;
38224;SDS011;24025;48.138;11.428;2023-08-21T21:22:34;11.32;;;5.57;;
38224;SDS011;24025;48.138;11.428;2023-08-21T21:25:06;10.20;;;5.93;;
38224;SDS011;24025;48.138;11.428;2023-08-21T21:27:38;10.18;;;5.53;;
38224;SDS011;24025;48.138;11.428;2023-08-21T21:30:10;9.43;;;5.68;;
38224;SDS011;24025;48.138;11.428;2023-08-21T21:32:42;10.80;;;5.72;;
38224;SDS011;24025;48.138;11.428;2023-08-21T21:35:13;6.97;;;5.30;;
38224;SDS011;24025;48.138;11.428;2023-08-21T21:37:45;9.55;;;5.85;;
38224;SDS011;24025;48.138;11.428;2023-08-21T21:40:16;6.50;;;5.80;;
38224;SDS011;24025;48.138;11.428;2023-08-21T21:42:48;8.00;;;5.88;;
38224;SDS011;24025;48.138;11.428;2023-08-21T21:45:19;7.85;;;6.65;;
38224;SDS011;24025;48.138;11.428;2023-08-21T21:50:22;7.65;;;6.00;;
38224;SDS011;24025;48.138;11.428;2023-08-21T21:52:54;10.75;;;5.88;;
38224;SDS011;24025;48.138;11.428;2023-08-21T21:55:26;10.02;;;5.63;;
38224;SDS011;24025;48.138;11.428;2023-08-21T21:57:57;8.93;;;6.22;;
38224;SDS011;24025;48.138;11.428;2023-08-21T22:00:29;10.80;;;5.70;;
38224;SDS011;24025;48.138;11.428;2023-08-21T22:03:02;11.52;;;6.18;;
38224;SDS011;24025;48.138;11.428;2023-08-21T22:05:34;7.57;;;5.60;;
38224;SDS011;24025;48.138;11.428;2023-08-21T22:08:06;7.85;;;6.50;;
38224;SDS011;24025;48.138;11.428;2023-08-21T22:10:37;6.28;;;5.68;;
38224;SDS011;24025;48.138;11.428;2023-08-21T22:13:09;14.57;;;5.95;;
38224;SDS011;24025;48.138;11.428;2023-08-21T22:15:40;9.20;;;5.95;;
38224;SDS011;24025;48.138;11.428;2023-08-21T22:18:12;8.93;;;5.72;;
38224;SDS011;24025;48.138;11.428;2023-08-21T22:23:15;9.38;;;5.72;;
38224;SDS011;24025;48.138;11.428;2023-08-21T22:25:47;9.88;;;6.35;;
38224;SDS011;24025;48.138;11.428;2023-08-21T22:28:18;10.10;;;6.35;;
38224;SDS011;24025;48.138;11.428;2023-08-21T22:30:51;8.45;;;6.63;;
38224;SDS011;24025;48.138;11.428;2023-08-21T22:33:22;7.53;;;6.32;;
38224;SDS011;24025;48.138;11.428;2023-08-21T22:35:54;6.88;;;6.18;;
38224;SDS011;24025;48.138;11.428;2023-08-21T22:38:25;10.23;;;6.72;;
38224;SDS011;24025;48.138;11.428;2023-08-21T22:40:57;7.25;;;5.75;;
38224;SDS011;24025;48.138;11.428;2023-08-21T22:43:29;6.60;;;6.00;;
38224;SDS011;24025;48.138;11.428;2023-08-21T22:46:04;7.43;;;6.05;;
38224;SDS011;24025;48.138;11.428;2023-08-21T22:48:36;16.45;;;6.45;;
38224;SDS011;24025;48.138;11.428;2023-08-21T22:51:08;9.73;;;6.78;;
38224;SDS011;24025;48.138;11.428;2023-08-21T22:53:44;10.48;;;6.25;;
38224;SDS011;24025;48.138;11.428;2023-08-21T22:56:15;6.40;;;5.78;;
38224;SDS011;24025;48.138;11.428;2023-08-21T23:01:18;7.28;;;6.32;;
38224;SDS011;24025;48.138;11.428;2023-08-21T23:06:21;9.45;;;5.63;;